New Richland, MN (56072)

7:52 PM CST on December 03, 2016 (GMT -0600)
Lemond Township, Steele County Rd 4 | | Change Station

Elev 1176 ft 43.97 °N, 93.37 °W | Updated 7 seconds ago

Light Snow
Light Snow
31.9 °F
Feels Like 25 °F
N
7.0
Wind Variable Wind from SE
Gusts 8.0 mph

Today
High -- | Low -- °F
--% Chance of Precip.
Yesterday
High -- | Low -- °F
Precip. -- in
Pressure 30.17 in
Visibility 5.0 miles
Clouds Mostly Cloudy 800 ft
Overcast 1200 ft
Windchill 25 °F
Dew Point 31 °F
Humidity 95%
Rainfall 0.00 in
Snow Depth Not available.
7:31 AM 4:36 PM
Waxing Crescent, 18% visible
METAR KACQ 040134Z AUTO 13005KT 5SM -SN BKN008 OVC012 00/M01 A3017 RMK AO2
Pressure 30.17 in
Visibility 5.0 miles
Clouds Mostly Cloudy 800 ft
Overcast 1200 ft
Windchill 25 °F
Dew Point 31 °F
Humidity 95%
Rainfall 0.00 in
Snow Depth Not available.
7:31 AM 4:36 PM
Waxing Crescent, 18% visible
METAR KACQ 040134Z AUTO 13005KT 5SM -SN BKN008 OVC012 00/M01 A3017 RMK AO2

10-Day Weather Forecast

Almanac

Astronomy

Dec. 03, 2016 Rise Set
Actual Time
Civil Twilight
Nautical Twilight
Astronomical Twilight
Moon
Length of Visible Light
Length of Day
Tomorrow will be .
, % of the Moon is Illuminated

Today's Extremes

State Highs State Lows

Community

WunderPhotos

Upload Photos

1,955,536 photos uploaded!

WunderBlog® & News

Nearby

Air Quality

  Air Quality AQ Index Pollutant
Not available.

Snow Depth

Station Depth Elevation

Earthquake Activity

City Distance Mag. Time & Date
Minimum magnitude displayed is 2.5.

Coastal Water Temperatures

Place Temperature

Stations

Nearby Weather Stations

Station Location Temp. Windchill Dew Point Humidity Wind Precip. Elev Updated Type
                   

Watches & Warnings

There are currently no watches in effect.